Aérodrome :
LOGIN :

S'inscrire | Disclaimer

   EN    FR    IT 

 










Légende :    VFR   VFR Marginal   IFR   IFR Intensif   IFR Très Intensif
Visi : 
Plafond : 
>= 8 km
>= 3000ft
5 à 8 km
1000 à 3000 ft
1500m à 5 km
500 à 1000 ft
800 à 1500m
200 à 500 ft
< 800m
< 200 ft
Symboles :   Orages  Brouillard  Fortes neiges  Fortes précipitations  Vent > 20 kt
SIGMETs :   Divers  Orages  Givrage  Turbulence  Onde Orograph.  Cendres Volcan.







- Altitude de l'aérodrome : 3006 ft
- Code IATA : LEN


LELN - Leon

DERNIER METAR :
  • 160500Z AUTO VRB02KT 6000 0150NE R23/0175N BCFG VV001 04/04 Q1015

METARs EXPIRÉS :
  • 160430Z AUTO 35003KT 310V030 7000 NCD 05/05 Q1015
  • 160400Z AUTO 30006KT 9999 4400SW SCT014/// 05/05 Q1015
  • 160330Z AUTO 31004KT 280V350 9999 2200SW FEW014/// 05/05 Q1014
  • 160300Z AUTO 31006KT 2200 1200SW BR FEW014/// 05/05 Q1014
  • 160230Z AUTO 30006KT 3800 1100SW BR NSC 05/05 Q1014

TAF TAF LELN
Valide du 16 à 03h jusqu'au 16 à 12h UTC


160200Z 1603/1612 VRB05KT 9999 SCT020
TEMPO 1603/1608 3000 BR
Pas de NOTAMs connus pour ce terrain.



MET'MAP, la Météo Aéronautique d'un coup d'oeil ! - Copyright ORBIFLY Décembre 2007 - Disclaimer

ORBIFLY MET'MAP TEAM :

Programmation & Développement : Alexandra Zaïnal
Conception & Développement : Baudouin d'Aumeries
Co-Programmation & Développement : Marc-Olivier Méhu
Soutien technique & logistique : Manuel Goepfert

Contact : metmap@orbifly.com




SOURCES & CREDITS :

   NOAA